createdAt,value
2018-08-19T00:01:45.373Z,19.80
2018-08-19T00:04:14.583Z,19.81
2018-08-19T00:06:43.872Z,19.78
2018-08-19T00:09:12.452Z,19.77
2018-08-19T00:11:41.620Z,19.71
2018-08-19T00:14:24.774Z,19.68
2018-08-19T00:16:53.839Z,19.70
2018-08-19T00:19:22.247Z,19.68
2018-08-19T00:21:50.778Z,19.64
2018-08-19T00:24:19.140Z,19.63
2018-08-19T00:26:47.699Z,19.62
2018-08-19T00:29:22.559Z,19.58
2018-08-19T00:31:51.625Z,19.54
2018-08-19T00:34:30.446Z,19.52
2018-08-19T00:36:59.818Z,19.44
2018-08-19T00:39:28.233Z,19.43
2018-08-19T00:41:57.153Z,19.42
2018-08-19T00:44:25.608Z,19.38
2018-08-19T00:46:55.345Z,19.33
2018-08-19T00:49:23.792Z,19.31
2018-08-19T00:51:59.239Z,19.33
2018-08-19T00:54:28.743Z,19.31
2018-08-19T00:56:58.253Z,19.27
2018-08-19T00:59:28.369Z,19.23
2018-08-19T01:01:56.807Z,19.16
2018-08-19T01:04:25.536Z,19.15
2018-08-19T01:06:55.043Z,19.12
2018-08-19T01:09:30.720Z,19.12
2018-08-19T01:11:59.278Z,19.09
2018-08-19T01:14:27.658Z,19.08
2018-08-19T01:16:56.139Z,19.11
2018-08-19T01:19:24.988Z,19.13
2018-08-19T01:21:54.127Z,19.08
2018-08-19T01:24:23.400Z,19.00
2018-08-19T01:26:51.863Z,19.03
2018-08-19T01:29:37.291Z,19.06
2018-08-19T01:32:12.009Z,18.97
2018-08-19T01:34:43.649Z,19.01
2018-08-19T01:37:12.488Z,18.92
2018-08-19T01:39:40.942Z,18.88
2018-08-19T01:42:09.728Z,18.88
2018-08-19T01:44:38.208Z,18.82
2018-08-19T01:47:06.586Z,18.77
2018-08-19T01:49:34.998Z,18.77
2018-08-19T01:52:03.549Z,18.74
2018-08-19T01:54:32.030Z,18.69
2018-08-19T01:57:02.383Z,18.70
2018-08-19T01:59:33.092Z,18.70
2018-08-19T02:02:03.641Z,18.63
2018-08-19T02:04:33.255Z,18.59
2018-08-19T02:07:02.127Z,18.57
2018-08-19T02:09:30.562Z,18.61
2018-08-19T02:12:00.010Z,18.54
2018-08-19T02:14:28.409Z,18.55
2018-08-19T02:16:57.477Z,18.50
2018-08-19T02:19:25.855Z,18.56
2018-08-19T02:21:54.539Z,18.47
2018-08-19T02:24:23.635Z,18.49
2018-08-19T02:26:52.015Z,18.47
2018-08-19T02:29:36.983Z,18.43
2018-08-19T02:32:10.676Z,18.45
2018-08-19T02:34:40.398Z,18.39
2018-08-19T02:37:10.108Z,18.40
2018-08-19T02:39:40.948Z,18.43
2018-08-19T02:42:27.447Z,18.38
2018-08-19T02:45:03.335Z,18.37
2018-08-19T02:47:32.403Z,18.40
2018-08-19T02:50:00.880Z,18.35
2018-08-19T02:52:31.417Z,18.32
2018-08-19T02:55:02.039Z,18.27
2018-08-19T02:57:31.753Z,18.36
2018-08-19T03:00:01.162Z,18.32
2018-08-19T03:02:34.415Z,18.31
2018-08-19T03:05:04.773Z,18.23
2018-08-19T03:07:33.386Z,18.17
2018-08-19T03:10:09.107Z,18.15
2018-08-19T03:12:37.801Z,18.23
2018-08-19T03:15:08.764Z,18.21
2018-08-19T03:17:37.158Z,18.17
2018-08-19T03:20:08.494Z,18.12
2018-08-19T03:22:36.841Z,18.12
2018-08-19T03:25:05.698Z,18.15
2018-08-19T03:27:34.080Z,18.15
2018-08-19T03:30:03.627Z,18.13
2018-08-19T03:32:31.996Z,18.06
2018-08-19T03:35:34.607Z,18.06
2018-08-19T03:38:11.197Z,18.07
2018-08-19T03:40:39.524Z,18.04
2018-08-19T03:43:08.041Z,17.99
2018-08-19T03:45:36.382Z,17.93
2018-08-19T03:48:05.442Z,17.91
2018-08-19T03:50:36.826Z,17.91
2018-08-19T03:53:05.365Z,17.89
2018-08-19T03:55:34.413Z,17.92
2018-08-19T03:58:04.926Z,17.91
2018-08-19T04:00:34.444Z,17.88
2018-08-19T04:03:12.073Z,17.90
2018-08-19T04:05:44.891Z,17.90
2018-08-19T04:08:14.287Z,17.89
2018-08-19T04:10:43.837Z,17.90
2018-08-19T04:13:26.413Z,17.92
2018-08-19T04:15:56.976Z,17.89
2018-08-19T04:18:30.751Z,17.91
2018-08-19T04:21:00.657Z,17.93
2018-08-19T04:23:29.746Z,17.95
2018-08-19T04:25:58.069Z,17.91
2018-08-19T04:28:26.408Z,17.91
2018-08-19T04:30:56.671Z,17.92
2018-08-19T04:33:30.210Z,17.95
2018-08-19T04:35:58.600Z,17.95
2018-08-19T04:38:28.084Z,17.95
2018-08-19T04:40:57.046Z,17.93
2018-08-19T04:43:28.393Z,17.99
2018-08-19T04:45:56.771Z,18.03
2018-08-19T04:48:26.593Z,18.05
2018-08-19T04:50:56.297Z,18.11
2018-08-19T04:53:24.680Z,18.13
2018-08-19T04:55:53.872Z,18.20
2018-08-19T04:58:22.292Z,18.23
2018-08-19T05:00:50.702Z,18.30
2018-08-19T05:03:19.119Z,18.37
2018-08-19T05:05:47.492Z,18.44
2018-08-19T05:08:15.984Z,18.51
2018-08-19T05:10:44.254Z,18.53
2018-08-19T05:13:13.141Z,18.61
2018-08-19T05:15:42.344Z,18.64
2018-08-19T05:18:10.748Z,18.70
2018-08-19T05:20:39.203Z,18.73
2018-08-19T05:23:08.092Z,18.80
2018-08-19T05:25:51.189Z,18.88
2018-08-19T05:28:19.749Z,18.97
2018-08-19T05:30:48.281Z,19.08
2018-08-19T05:33:16.616Z,19.13
2018-08-19T05:35:44.932Z,19.18
2018-08-19T05:38:13.328Z,19.22
2018-08-19T05:40:46.852Z,19.26
2018-08-19T05:43:15.252Z,19.36
2018-08-19T05:45:50.665Z,19.50
2018-08-19T05:48:19.015Z,19.63
2018-08-19T05:50:47.350Z,19.77
2018-08-19T05:53:15.699Z,19.86
2018-08-19T05:55:44.199Z,19.95
2018-08-19T05:58:12.533Z,20.00
2018-08-19T06:00:44.084Z,20.13
2018-08-19T06:03:12.435Z,20.25
2018-08-19T06:05:40.784Z,20.41
2018-08-19T06:08:10.148Z,20.50
2018-08-19T06:10:39.064Z,20.62
2018-08-19T06:13:08.678Z,20.72
2018-08-19T06:15:37.379Z,20.82
2018-08-19T06:18:05.868Z,21.02
2018-08-19T06:20:34.535Z,21.05
2018-08-19T06:23:02.909Z,21.15
2018-08-19T06:25:31.287Z,21.32
2018-08-19T06:27:59.835Z,21.43
2018-08-19T06:30:28.319Z,21.56
2018-08-19T06:32:56.699Z,21.62
2018-08-19T06:35:25.077Z,21.90
2018-08-19T06:37:53.504Z,22.11
2018-08-19T06:40:23.169Z,22.37
2018-08-19T06:42:51.521Z,22.47
2018-08-19T06:45:19.922Z,22.58
2018-08-19T06:47:48.339Z,22.82
2018-08-19T06:50:39.040Z,23.07
2018-08-19T06:53:07.435Z,23.38
2018-08-19T06:55:36.277Z,23.76
2018-08-19T06:58:04.939Z,23.74
2018-08-19T07:00:33.732Z,24.29
2018-08-19T07:03:03.541Z,24.60
2018-08-19T07:05:32.554Z,24.93
2018-08-19T07:08:01.161Z,25.25
2018-08-19T07:10:38.256Z,25.62
2018-08-19T07:13:09.170Z,25.81
2018-08-19T07:15:38.746Z,26.09
2018-08-19T07:18:08.747Z,26.23
2018-08-19T07:20:37.590Z,26.52
2018-08-19T07:23:06.411Z,26.87
2018-08-19T07:25:34.796Z,27.18
2018-08-19T07:28:03.159Z,27.41
2018-08-19T07:30:31.562Z,27.55
2018-08-19T07:32:59.948Z,27.70
2018-08-19T07:35:28.299Z,27.98
2018-08-19T07:37:56.649Z,28.28
2018-08-19T07:40:25.029Z,28.51
2018-08-19T07:42:53.376Z,28.93
2018-08-19T07:45:21.757Z,28.95
2018-08-19T07:47:50.115Z,29.36
2018-08-19T07:50:18.480Z,29.23
2018-08-19T07:52:46.856Z,29.87
2018-08-19T07:55:15.242Z,29.83
2018-08-19T07:57:43.654Z,30.18
2018-08-19T08:00:12.673Z,30.68
2018-08-19T08:02:41.107Z,30.88
2018-08-19T08:05:10.661Z,30.84
2018-08-19T08:07:43.338Z,30.84
2018-08-19T08:10:11.777Z,30.93
2018-08-19T08:12:40.212Z,31.47
2018-08-19T08:15:08.883Z,32.24
2018-08-19T08:17:38.376Z,32.79
2018-08-19T08:20:07.539Z,33.09
2018-08-19T08:22:36.874Z,34.74
2018-08-19T08:25:07.247Z,34.82
2018-08-19T08:27:36.718Z,35.24
2018-08-19T08:30:09.697Z,35.90
2018-08-19T08:32:38.519Z,36.22
2018-08-19T08:35:07.843Z,35.60
2018-08-19T08:37:36.240Z,37.40
2018-08-19T08:40:10.493Z,37.54
2018-08-19T08:42:43.336Z,38.43
2018-08-19T08:45:13.106Z,36.66
2018-08-19T08:47:41.745Z,36.60
2018-08-19T08:50:11.472Z,36.42
2018-08-19T08:52:42.306Z,37.05
2018-08-19T08:55:11.494Z,37.50
2018-08-19T08:57:39.860Z,37.72
2018-08-19T09:00:09.812Z,37.20
2018-08-19T09:02:38.194Z,36.99
2018-08-19T09:05:09.208Z,38.03
2018-08-19T09:07:37.614Z,39.04
2018-08-19T09:10:06.075Z,38.14
2018-08-19T09:12:45.213Z,39.75
2018-08-19T09:15:13.632Z,39.95
2018-08-19T09:17:42.062Z,39.25
2018-08-19T09:20:11.155Z,39.57
2018-08-19T09:22:39.608Z,40.10
2018-08-19T09:25:09.080Z,40.53
2018-08-19T09:27:38.339Z,40.41
2018-08-19T09:30:07.771Z,40.59
2018-08-19T09:32:50.243Z,40.94
2018-08-19T09:35:18.620Z,40.85
2018-08-19T09:37:47.005Z,40.91
2018-08-19T09:40:15.401Z,40.48
2018-08-19T09:42:43.773Z,42.05
2018-08-19T09:45:12.153Z,41.83
2018-08-19T09:47:40.602Z,42.65
2018-08-19T09:50:08.996Z,42.90
2018-08-19T09:52:37.374Z,42.46
2018-08-19T09:55:09.852Z,42.24
2018-08-19T09:57:42.697Z,42.34
2018-08-19T10:00:12.719Z,41.64
2018-08-19T10:02:46.474Z,42.96
2018-08-19T10:05:19.048Z,42.78
2018-08-19T10:07:47.471Z,43.10
2018-08-19T10:10:15.898Z,40.83
2018-08-19T10:12:45.042Z,42.00
2018-08-19T10:15:13.437Z,42.32
2018-08-19T10:17:41.856Z,41.87
2018-08-19T10:20:10.252Z,42.07
2018-08-19T10:22:41.944Z,40.77
2018-08-19T10:25:14.979Z,41.79
2018-08-19T10:27:44.963Z,41.71
2018-08-19T10:30:13.615Z,41.86
2018-08-19T10:32:42.075Z,42.71
2018-08-19T10:35:15.729Z,42.88
2018-08-19T10:37:44.123Z,42.69
2018-08-19T10:40:12.545Z,42.29
2018-08-19T10:42:41.159Z,41.93
2018-08-19T10:45:14.932Z,42.79
2018-08-19T10:47:43.615Z,42.50
2018-08-19T10:50:11.979Z,41.95
2018-08-19T10:52:41.927Z,42.65
2018-08-19T10:55:11.454Z,42.26
2018-08-19T10:57:40.033Z,39.26
2018-08-19T11:00:13.601Z,38.16
2018-08-19T11:02:42.224Z,37.36
2018-08-19T11:05:10.699Z,36.61
2018-08-19T11:07:39.073Z,36.68
2018-08-19T11:10:28.579Z,36.49
2018-08-19T11:12:58.295Z,35.79
2018-08-19T11:15:53.336Z,35.17
2018-08-19T11:18:30.573Z,33.78
2018-08-19T11:21:05.257Z,33.97
2018-08-19T11:23:40.886Z,33.31
2018-08-19T11:26:09.793Z,32.98
2018-08-19T11:28:40.360Z,32.73
2018-08-19T11:31:22.092Z,32.48
2018-08-19T11:33:51.332Z,32.10
2018-08-19T11:36:20.624Z,31.96
2018-08-19T11:38:51.986Z,31.34
2018-08-19T11:41:20.892Z,30.53
2018-08-19T11:43:50.182Z,30.53
2018-08-19T11:46:18.564Z,30.53
2018-08-19T11:48:54.944Z,30.40
2018-08-19T11:51:37.575Z,30.32
2018-08-19T11:54:06.033Z,30.19
2018-08-19T11:56:34.561Z,30.10
2018-08-19T11:59:02.993Z,29.62
2018-08-19T12:01:31.389Z,29.66
2018-08-19T12:04:09.248Z,29.78
2018-08-19T12:06:37.616Z,29.67
2018-08-19T12:09:08.688Z,29.57
2018-08-19T12:11:38.420Z,29.35
2018-08-19T12:14:08.721Z,29.21
2018-08-19T12:16:43.374Z,29.10
2018-08-19T12:19:17.057Z,28.93
2018-08-19T12:21:51.277Z,28.91
2018-08-19T12:24:22.670Z,29.16
2018-08-19T12:26:53.139Z,29.13
2018-08-19T12:29:22.029Z,29.05
2018-08-19T12:31:52.268Z,28.85
2018-08-19T12:34:20.646Z,28.72
2018-08-19T12:36:49.060Z,28.63
2018-08-19T12:39:17.521Z,28.54
2018-08-19T12:41:51.018Z,28.80
2018-08-19T12:44:19.388Z,28.68
2018-08-19T12:47:02.919Z,28.68
2018-08-19T12:49:35.079Z,28.61
2018-08-19T12:52:03.530Z,28.57
2018-08-19T12:54:31.963Z,28.60
2018-08-19T12:57:00.391Z,28.48
2018-08-19T12:59:28.840Z,28.40
2018-08-19T13:01:57.201Z,28.31
2018-08-19T13:04:25.583Z,28.39
2018-08-19T13:07:07.986Z,28.45
2018-08-19T13:09:36.429Z,28.51
2018-08-19T13:12:06.872Z,28.55
2018-08-19T13:14:35.277Z,28.56
2018-08-19T13:17:03.700Z,28.61
2018-08-19T13:19:32.637Z,28.63
2018-08-19T13:22:01.828Z,28.61
2018-08-19T13:24:34.371Z,28.58
2018-08-19T13:27:03.097Z,28.59
2018-08-19T13:29:31.871Z,28.59
2018-08-19T13:32:00.265Z,28.66
2018-08-19T13:34:29.047Z,28.66
2018-08-19T13:36:57.974Z,28.64
2018-08-19T13:39:26.923Z,28.56
2018-08-19T13:41:55.517Z,28.52
2018-08-19T13:44:23.988Z,28.54
2018-08-19T13:46:52.380Z,28.48
2018-08-19T13:49:23.592Z,28.45
2018-08-19T13:51:52.200Z,28.44
2018-08-19T13:54:21.602Z,28.45
2018-08-19T13:56:50.037Z,28.53
2018-08-19T13:59:18.680Z,28.41
2018-08-19T14:01:47.043Z,28.50
2018-08-19T14:04:15.527Z,28.52
2018-08-19T14:06:45.047Z,28.46
2018-08-19T14:09:13.948Z,28.44
2018-08-19T14:11:42.381Z,28.64
2018-08-19T14:14:11.408Z,28.55
2018-08-19T14:16:39.845Z,28.49
2018-08-19T14:19:08.706Z,28.55
2018-08-19T14:21:37.059Z,28.43
2018-08-19T14:24:05.500Z,28.39
2018-08-19T14:26:34.453Z,28.41
2018-08-19T14:29:03.004Z,28.41
2018-08-19T14:31:31.688Z,28.43
2018-08-19T14:34:00.350Z,28.38
2018-08-19T14:36:28.814Z,28.33
2018-08-19T14:38:57.215Z,28.31
2018-08-19T14:41:25.596Z,28.38
2018-08-19T14:44:00.347Z,28.55
2018-08-19T14:46:29.636Z,28.47
2018-08-19T14:48:59.160Z,28.37
2018-08-19T14:51:28.687Z,28.46
2018-08-19T14:54:20.671Z,28.35
2018-08-19T14:56:49.225Z,28.41
2018-08-19T14:59:20.122Z,28.38
2018-08-19T15:01:48.460Z,28.33
2018-08-19T15:04:17.795Z,28.31
2018-08-19T15:06:47.101Z,28.23
2018-08-19T15:09:28.163Z,28.27
2018-08-19T15:12:05.161Z,28.24
2018-08-19T15:14:34.834Z,28.27
2018-08-19T15:17:03.197Z,28.29
2018-08-19T15:19:31.550Z,28.26
2018-08-19T15:21:59.896Z,28.22
2018-08-19T15:24:28.204Z,28.16
2018-08-19T15:26:56.525Z,28.18
2018-08-19T15:29:30.670Z,28.17
2018-08-19T15:32:02.465Z,28.17
2018-08-19T15:34:30.839Z,28.15
2018-08-19T15:36:59.215Z,28.11
2018-08-19T15:39:27.558Z,28.11
2018-08-19T15:41:55.899Z,28.17
2018-08-19T15:44:24.245Z,28.14
2018-08-19T15:46:52.627Z,28.08
2018-08-19T15:49:22.204Z,28.07
2018-08-19T15:51:50.578Z,28.04
2018-08-19T15:54:18.916Z,28.04
2018-08-19T15:56:47.297Z,28.02
2018-08-19T15:59:15.704Z,28.02
2018-08-19T16:01:44.239Z,28.08
2018-08-19T16:04:19.720Z,28.05
2018-08-19T16:06:50.386Z,28.03
2018-08-19T16:09:21.126Z,28.03
2018-08-19T16:11:50.325Z,28.00
2018-08-19T16:14:30.439Z,27.99
2018-08-19T16:17:00.089Z,27.98
2018-08-19T16:19:28.458Z,27.95
2018-08-19T16:21:57.953Z,27.92
2018-08-19T16:24:26.859Z,27.88
2018-08-19T16:26:55.242Z,27.76
2018-08-19T16:29:23.619Z,27.70
2018-08-19T16:31:52.055Z,27.63
2018-08-19T16:34:20.375Z,27.62
2018-08-19T16:36:49.047Z,27.58
2018-08-19T16:39:18.313Z,27.51
2018-08-19T16:41:46.616Z,27.45
2018-08-19T16:44:14.993Z,27.44
2018-08-19T16:46:43.359Z,27.41
2018-08-19T16:49:11.727Z,27.38
2018-08-19T16:51:40.056Z,27.39
2018-08-19T16:54:08.729Z,27.35
2018-08-19T16:56:37.047Z,27.30
2018-08-19T16:59:05.441Z,27.29
2018-08-19T17:01:33.778Z,27.27
2018-08-19T17:04:02.127Z,27.21
2018-08-19T17:06:30.477Z,27.18
2018-08-19T17:08:58.804Z,27.17
2018-08-19T17:11:27.139Z,27.13
2018-08-19T17:13:55.474Z,27.11
2018-08-19T17:16:23.793Z,27.09
2018-08-19T17:18:52.124Z,27.06
2018-08-19T17:21:20.470Z,27.02
2018-08-19T17:23:49.030Z,26.98
2018-08-19T17:26:23.739Z,26.94
2018-08-19T17:28:52.396Z,26.90
2018-08-19T17:31:21.064Z,26.86
2018-08-19T17:33:49.412Z,26.82
2018-08-19T17:36:26.873Z,26.80
2018-08-19T17:38:55.214Z,26.77
2018-08-19T17:41:23.581Z,26.74
2018-08-19T17:43:51.957Z,26.71
2018-08-19T17:46:20.567Z,26.69
2018-08-19T17:48:48.921Z,26.66
2018-08-19T17:51:35.528Z,26.65
2018-08-19T17:54:07.174Z,26.60
2018-08-19T17:56:35.533Z,26.57
2018-08-19T17:59:04.969Z,26.53
2018-08-19T18:01:33.286Z,26.48
2018-08-19T18:04:01.624Z,26.46
2018-08-19T18:06:29.996Z,26.42
2018-08-19T18:08:58.342Z,26.39
2018-08-19T18:11:26.759Z,26.34
2018-08-19T18:13:55.139Z,26.29
2018-08-19T18:16:23.516Z,26.25
2018-08-19T18:18:51.995Z,26.20
2018-08-19T18:21:20.335Z,26.15
2018-08-19T18:23:49.598Z,26.10
2018-08-19T18:26:17.953Z,26.04
2018-08-19T18:28:48.045Z,26.00
2018-08-19T18:31:20.517Z,25.94
2018-08-19T18:34:07.152Z,25.89
2018-08-19T18:36:36.172Z,25.82
2018-08-19T18:39:06.511Z,25.74
2018-08-19T18:41:37.139Z,25.69
2018-08-19T18:44:06.949Z,25.63
2018-08-19T18:46:35.733Z,25.58
2018-08-19T18:49:12.615Z,25.54
2018-08-19T18:51:42.440Z,25.49
2018-08-19T18:54:32.543Z,25.43
2018-08-19T18:57:03.963Z,25.38
2018-08-19T18:59:32.318Z,25.31
2018-08-19T19:02:01.952Z,25.26
2018-08-19T19:04:30.322Z,25.21
2018-08-19T19:06:58.753Z,25.15
2018-08-19T19:09:39.111Z,25.10
2018-08-19T19:12:07.520Z,25.05
2018-08-19T19:14:36.178Z,24.99
2018-08-19T19:17:04.541Z,24.93
2018-08-19T19:19:37.036Z,24.90
2018-08-19T19:22:05.359Z,24.81
2018-08-19T19:24:37.743Z,24.72
2018-08-19T19:27:06.211Z,24.72
2018-08-19T19:29:34.571Z,24.71
2018-08-19T19:32:14.248Z,24.67
2018-08-19T19:34:42.594Z,24.62
2018-08-19T19:37:11.071Z,24.57
2018-08-19T19:39:39.525Z,24.51
2018-08-19T19:42:10.822Z,24.46
2018-08-19T19:44:39.318Z,24.42
2018-08-19T19:47:08.994Z,24.38
2018-08-19T19:49:49.400Z,24.33
2018-08-19T19:52:17.774Z,24.30
2018-08-19T19:54:46.096Z,24.26
2018-08-19T19:57:14.431Z,24.20
2018-08-19T19:59:42.768Z,24.16
2018-08-19T20:02:17.054Z,24.12
2018-08-19T20:04:45.771Z,24.07
2018-08-19T20:07:14.379Z,24.02
2018-08-19T20:09:42.840Z,23.98
2018-08-19T20:12:16.524Z,23.94
2018-08-19T20:14:49.243Z,23.87
2018-08-19T20:17:18.265Z,23.83
2018-08-19T20:19:46.651Z,23.79
2018-08-19T20:22:17.097Z,23.74
2018-08-19T20:24:45.508Z,23.70
2018-08-19T20:27:14.013Z,23.60
2018-08-19T20:29:42.330Z,23.52
2018-08-19T20:32:10.672Z,23.43
2018-08-19T20:34:39.557Z,23.36
2018-08-19T20:37:07.876Z,23.31
2018-08-19T20:39:36.207Z,23.27
2018-08-19T20:42:04.562Z,23.24
2018-08-19T20:44:32.892Z,23.21
2018-08-19T20:47:01.250Z,23.16
2018-08-19T20:49:29.596Z,23.13
2018-08-19T20:51:57.994Z,23.08
2018-08-19T20:54:26.328Z,23.04
2018-08-19T20:56:55.304Z,22.99
2018-08-19T20:59:28.958Z,22.97
2018-08-19T21:01:57.303Z,22.91
2018-08-19T21:04:25.630Z,22.87
2018-08-19T21:06:54.203Z,22.84
2018-08-19T21:09:22.724Z,22.81
2018-08-19T21:11:51.458Z,22.78
2018-08-19T21:14:20.454Z,22.75
2018-08-19T21:16:49.184Z,22.71
2018-08-19T21:19:17.526Z,22.69
2018-08-19T21:21:45.848Z,22.67
2018-08-19T21:24:14.247Z,22.64
2018-08-19T21:26:45.961Z,22.62
2018-08-19T21:29:14.278Z,22.56
2018-08-19T21:31:42.625Z,22.54
2018-08-19T21:34:10.972Z,22.51
2018-08-19T21:36:39.316Z,22.48
2018-08-19T21:39:08.459Z,22.42
2018-08-19T21:41:46.762Z,22.41
2018-08-19T21:44:15.574Z,22.42
2018-08-19T21:46:43.921Z,22.38
2018-08-19T21:49:12.642Z,22.33
2018-08-19T21:51:41.059Z,22.34
2018-08-19T21:54:11.185Z,22.30
2018-08-19T21:56:39.823Z,22.26
2018-08-19T21:59:13.604Z,22.26
2018-08-19T22:01:50.148Z,22.20
2018-08-19T22:04:18.933Z,22.17
2018-08-19T22:06:47.498Z,22.15
2018-08-19T22:09:29.705Z,22.10
2018-08-19T22:11:59.074Z,22.09
2018-08-19T22:14:27.598Z,22.07
2018-08-19T22:16:58.538Z,22.05
2018-08-19T22:19:27.088Z,22.02
2018-08-19T22:21:55.491Z,21.98
2018-08-19T22:24:23.884Z,21.92
2018-08-19T22:26:52.415Z,21.93
2018-08-19T22:29:21.731Z,21.90
2018-08-19T22:31:50.663Z,21.88
2018-08-19T22:34:19.039Z,21.85
2018-08-19T22:36:47.470Z,21.83
2018-08-19T22:39:17.129Z,21.82
2018-08-19T22:41:48.614Z,21.75
2018-08-19T22:44:17.364Z,21.69
2018-08-19T22:46:45.849Z,21.69
2018-08-19T22:49:14.208Z,21.68
2018-08-19T22:51:42.586Z,21.61
2018-08-19T22:54:10.919Z,21.55
2018-08-19T22:56:39.256Z,21.54
2018-08-19T22:59:07.680Z,21.56
2018-08-19T23:01:41.376Z,21.51
2018-08-19T23:04:09.730Z,21.47
2018-08-19T23:06:38.064Z,21.48
2018-08-19T23:09:07.223Z,21.46
2018-08-19T23:11:41.000Z,21.40
2018-08-19T23:14:20.672Z,21.37
2018-08-19T23:16:48.982Z,21.37
2018-08-19T23:19:19.560Z,21.30
2018-08-19T23:21:47.899Z,21.24
2018-08-19T23:24:16.246Z,21.24
2018-08-19T23:26:44.547Z,21.19
2018-08-19T23:29:12.880Z,21.15
2018-08-19T23:31:41.253Z,21.19
2018-08-19T23:34:09.629Z,21.12
2018-08-19T23:36:37.947Z,21.12
2018-08-19T23:39:08.089Z,21.09
2018-08-19T23:41:36.406Z,21.09
2018-08-19T23:44:04.775Z,21.04
2018-08-19T23:46:33.141Z,21.09
2018-08-19T23:49:01.477Z,21.09
2018-08-19T23:51:30.799Z,21.07
2018-08-19T23:53:59.989Z,21.06
2018-08-19T23:56:28.660Z,21.05
2018-08-19T23:58:57.377Z,21.06
